Time;durP1;ratioP1;P1;durP2;ratioP2;P2;SDS_P1;SDS_P2;PMS_P1;PMS_P2;Temp;Humidity;BMP_temperature;BMP_pressure;BME280_temperature;BME280_humidity;BME280_pressure;Samples;Min_cycle;Max_cycle;Signal;HPM_P1;HPM_P2
2022/09/16 00:00:09;;;;;;;1.67;0.98;;;;;;;13.77;85.14;100920.50;6240408;23;20027;-83
2022/09/16 00:02:35;;;;;;;2.13;0.70;;;;;;;13.96;83.61;100928.56;6211897;23;20039;-82
2022/09/16 00:05:00;;;;;;;2.38;0.63;;;;;;;13.97;83.60;100924.53;6212238;23;20016;-82
2022/09/16 00:07:25;;;;;;;2.47;0.70;;;;;;;14.11;83.00;100929.38;6237595;23;20000;-83
2022/09/16 00:09:51;;;;;;;2.15;0.80;;;;;;;14.07;83.39;100927.78;6239711;23;20106;-83
2022/09/16 00:12:16;;;;;;;4.55;0.77;;;;;;;14.13;82.35;100920.53;6242069;23;20012;-83
2022/09/16 00:14:42;;;;;;;2.15;0.70;;;;;;;14.15;83.52;100929.41;6242063;23;20018;-83
2022/09/16 00:17:07;;;;;;;8.48;1.02;;;;;;;14.14;82.61;100924.94;6240738;23;20012;-83
2022/09/16 00:19:32;;;;;;;4.70;0.85;;;;;;;14.05;83.71;100918.94;6214443;23;20008;-83
2022/09/16 00:21:58;;;;;;;1.75;0.68;;;;;;;14.01;83.49;100930.16;6240489;23;20386;-83
2022/09/16 00:24:23;;;;;;;1.67;0.77;;;;;;;14.06;83.59;100926.16;6214506;23;20019;-83
2022/09/16 00:26:48;;;;;;;7.18;1.45;;;;;;;14.15;83.60;100932.22;6241427;23;20340;-83
2022/09/16 00:29:14;;;;;;;5.55;1.20;;;;;;;13.96;84.77;100939.81;6214266;23;20050;-82
2022/09/16 00:31:39;;;;;;;4.43;0.80;;;;;;;14.05;83.80;100935.81;6240547;23;20012;-82
2022/09/16 00:34:04;;;;;;;4.68;0.70;;;;;;;13.95;84.27;100940.22;6241431;23;20386;-82
2022/09/16 00:36:30;;;;;;;1.90;0.70;;;;;;;13.78;86.20;100934.16;6241069;23;20008;-82
2022/09/16 00:38:55;;;;;;;1.48;0.75;;;;;;;13.57;86.54;100940.53;6215964;23;20020;-82
2022/09/16 00:41:27;;;;;;;1.35;0.73;;;;;;;13.91;84.53;100945.03;6213912;23;20039;-83
2022/09/16 00:43:56;;;;;;;3.80;1.25;;;;;;;13.83;84.76;100939.41;6240501;23;20000;-83
2022/09/16 00:46:26;;;;;;;4.32;0.80;;;;;;;13.96;84.36;100937.00;6242051;23;20103;-83
2022/09/16 00:48:51;;;;;;;2.78;0.80;;;;;;;14.03;84.83;100945.44;6214258;23;20175;-83
2022/09/16 00:51:17;;;;;;;3.25;0.82;;;;;;;14.11;83.64;100934.22;6241616;23;20016;-82
2022/09/16 00:53:50;;;;;;;3.08;0.73;;;;;;;14.09;83.80;100937.41;6213892;23;20091;-83
2022/09/16 00:56:22;;;;;;;3.03;0.70;;;;;;;14.15;83.50;100933.00;6214448;23;20020;-83
2022/09/16 00:58:53;;;;;;;2.15;0.88;;;;;;;14.16;83.01;100933.81;6241833;23;20440;-83
2022/09/16 01:01:19;;;;;;;4.40;1.23;;;;;;;13.97;86.04;100937.81;6241198;23;20016;-83
2022/09/16 01:03:54;;;;;;;2.60;0.98;;;;;;;13.88;85.57;100931.78;6215089;23;20478;-83
2022/09/16 01:06:21;;;;;;;3.97;1.20;;;;;;;13.94;85.57;100925.34;6213126;23;20012;-82
2022/09/16 01:08:49;;;;;;;2.30;0.82;;;;;;;13.82;85.72;100931.34;6213003;23;20004;-83
2022/09/16 01:11:15;;;;;;;3.30;1.27;;;;;;;13.94;85.60;100922.53;6241743;23;20015;-83
2022/09/16 01:13:42;;;;;;;9.65;1.48;;;;;;;14.00;85.40;100929.38;6214577;23;20000;-83
2022/09/16 01:16:13;;;;;;;4.60;1.77;;;;;;;14.01;84.82;100928.16;6214847;23;20012;-83
2022/09/16 01:18:53;;;;;;;3.33;1.17;;;;;;;13.88;85.93;100938.19;6240277;23;20008;-83
2022/09/16 01:21:49;;;;;;;5.28;1.02;;;;;;;13.97;85.52;100927.34;6214574;23;20016;-82
2022/09/16 01:24:23;;;;;;;4.20;1.20;;;;;;;13.95;85.91;100932.56;6213804;23;20003;-83
2022/09/16 01:26:48;;;;;;;1.95;1.20;;;;;;;13.59;88.69;100926.88;6239983;23;20008;-83
2022/09/16 01:29:59;;;;;;;3.25;1.33;;;;;;;13.37;89.96;100926.00;6240373;23;20003;-83
2022/09/16 01:33:05;;;;;;;4.60;1.40;;;;;;;13.62;87.60;100912.03;6212769;23;20030;-83
2022/09/16 01:36:27;;;;;;;3.47;1.00;;;;;;;13.40;90.13;100911.16;6184968;23;20023;-83
2022/09/16 01:39:17;;;;;;;6.13;1.77;;;;;;;13.60;87.51;100916.44;6173549;23;20492;-83
2022/09/16 01:41:48;;;;;;;4.03;1.17;;;;;;;13.72;87.35;100910.41;6177057;23;20096;-83
2022/09/16 01:44:45;;;;;;;2.75;1.33;;;;;;;13.74;87.47;100907.22;6216732;23;20008;-83
2022/09/16 01:47:48;;;;;;;2.75;1.23;;;;;;;13.62;88.99;100923.28;6212465;23;20012;-83
2022/09/16 01:50:51;;;;;;;4.30;1.35;;;;;;;13.44;89.84;100936.47;6241551;23;20039;-82
2022/09/16 01:53:31;;;;;;;6.22;1.13;;;;;;;13.53;89.03;100939.69;6219005;22;20032;-81
2022/09/16 01:56:02;;;;;;;4.32;1.00;;;;;;;13.42;89.30;100931.25;6238387;23;20036;-81
2022/09/16 01:58:27;;;;;;;6.80;1.25;;;;;;;13.38;90.12;100927.59;6237252;23;20005;-81
2022/09/16 02:01:08;;;;;;;3.03;1.23;;;;;;;12.75;93.26;100924.06;6238782;23;20467;-81
2022/09/16 02:03:38;;;;;;;1.58;0.85;;;;;;;13.49;87.98;100915.59;6237972;23;20428;-82
2022/09/16 02:06:16;;;;;;;2.95;1.65;;;;;;;13.51;87.18;100916.81;6237747;23;20016;-82
2022/09/16 02:08:55;;;;;;;3.42;1.05;;;;;;;13.71;86.18;100913.66;6240642;22;20031;-82
2022/09/16 02:11:22;;;;;;;3.20;0.95;;;;;;;13.71;85.83;100902.41;6240490;22;20000;-82
2022/09/16 02:14:03;;;;;;;7.72;1.20;;;;;;;13.29;87.94;100912.31;6238017;23;20015;-82
2022/09/16 02:16:40;;;;;;;4.63;1.25;;;;;;;13.69;85.75;100907.63;6241256;23;20519;-82
2022/09/16 02:19:11;;;;;;;2.13;1.17;;;;;;;13.68;85.97;100917.25;6238225;23;20090;-82
2022/09/16 02:21:39;;;;;;;5.93;1.13;;;;;;;13.69;85.33;100902.00;6239066;23;20012;-82
2022/09/16 02:24:15;;;;;;;1.75;0.77;;;;;;;13.66;85.41;100914.03;6237370;22;20065;-83
2022/09/16 02:26:45;;;;;;;3.17;1.20;;;;;;;13.78;84.28;100908.81;6241223;22;20042;-82
2022/09/16 02:29:20;;;;;;;6.05;1.20;;;;;;;13.53;86.06;100911.59;6240066;22;20306;-82
2022/09/16 02:31:47;;;;;;;4.43;0.80;;;;;;;13.73;84.97;100914.06;6238637;22;20385;-82
2022/09/16 02:34:23;;;;;;;2.72;0.80;;;;;;;13.47;85.89;100898.31;6239123;23;20006;-83
2022/09/16 02:36:55;;;;;;;4.18;0.93;;;;;;;13.58;85.23;100914.03;6238877;23;20031;-82
2022/09/16 02:39:28;;;;;;;3.65;0.77;;;;;;;13.30;87.87;100927.97;6238513;23;20325;-82
2022/09/16 02:41:55;;;;;;;1.95;0.77;;;;;;;13.46;86.48;100950.16;6237689;23;20018;-82
2022/09/16 02:44:22;;;;;;;5.60;0.90;;;;;;;13.54;86.09;100951.78;6239142;23;20622;-80
2022/09/16 02:47:21;;;;;;;2.08;0.77;;;;;;;13.67;85.45;100946.59;6239880;22;20012;-80
2022/09/16 02:50:00;;;;;;;1.35;0.63;;;;;;;13.58;85.33;100936.53;6238022;22;20326;-81
2022/09/16 02:52:41;;;;;;;3.53;0.65;;;;;;;13.37;85.83;100930.84;6235649;23;20085;-82
2022/09/16 02:55:19;;;;;;;2.97;1.17;;;;;;;13.43;85.64;100923.63;6238009;22;20007;-81
2022/09/16 02:57:45;;;;;;;1.80;1.67;;;;;;;13.62;84.40;100920.47;6238039;23;20009;-81
2022/09/16 03:00:11;;;;;;;2.08;0.88;;;;;;;13.66;84.03;100919.66;6238077;23;20042;-82
2022/09/16 03:02:36;;;;;;;5.97;1.13;;;;;;;13.55;84.94;100909.19;6240655;22;20020;-82
2022/09/16 03:05:02;;;;;;;1.67;0.60;;;;;;;13.57;84.13;100918.03;6240128;22;20023;-81
2022/09/16 03:07:28;;;;;;;3.33;0.85;;;;;;;13.55;84.50;100912.00;6240611;22;20049;-81
2022/09/16 03:09:53;;;;;;;3.92;0.80;;;;;;;13.59;83.99;100915.63;6239898;23;20332;-81
2022/09/16 03:12:35;;;;;;;1.67;0.70;;;;;;;13.52;84.25;100907.19;6240741;22;20008;-82
2022/09/16 03:15:27;;;;;;;2.33;0.85;;;;;;;13.72;83.06;100912.44;6241400;22;20091;-82
2022/09/16 03:18:08;;;;;;;3.17;1.00;;;;;;;13.66;83.34;100909.22;6237930;23;20010;-82
2022/09/16 03:20:52;;;;;;;1.08;0.43;;;;;;;13.59;84.13;100904.38;6239861;23;20023;-81
2022/09/16 03:23:43;;;;;;;4.07;0.70;;;;;;;13.55;84.59;100897.94;6239842;23;19996;-81
2022/09/16 03:26:26;;;;;;;2.70;0.70;;;;;;;13.52;84.84;100904.38;6239657;22;20430;-83
2022/09/16 03:29:27;;;;;;;3.92;0.80;;;;;;;13.58;84.21;100899.97;6237445;23;20061;-82
2022/09/16 03:32:05;;;;;;;3.60;0.70;;;;;;;13.61;85.18;100895.53;6200234;23;20099;-82
2022/09/16 03:34:39;;;;;;;3.40;0.80;;;;;;;13.66;84.17;100917.66;6239111;22;20026;-82
2022/09/16 03:37:10;;;;;;;6.60;1.42;;;;;;;13.58;85.38;100932.91;6238059;23;20024;-82
2022/09/16 03:39:37;;;;;;;1.90;0.90;;;;;;;13.49;85.57;100919.22;6238997;23;20016;-81
2022/09/16 03:42:06;;;;;;;6.70;1.08;;;;;;;13.52;85.68;100924.03;6239091;22;20124;-82
2022/09/16 03:44:38;;;;;;;2.47;0.95;;;;;;;13.61;85.41;100918.03;6238840;23;20340;-81
2022/09/16 03:47:04;;;;;;;2.13;0.80;;;;;;;13.62;84.89;100914.84;6239322;22;20438;-81
2022/09/16 03:49:30;;;;;;;1.60;0.80;;;;;;;13.62;85.03;100916.84;6238043;23;20004;-81
2022/09/16 03:51:56;;;;;;;4.68;0.80;;;;;;;13.70;84.40;100915.63;6240000;23;20371;-81
2022/09/16 03:54:21;;;;;;;5.90;1.35;;;;;;;13.62;84.55;100914.84;6238212;23;20008;-80
2022/09/16 03:56:47;;;;;;;4.50;1.05;;;;;;;13.60;85.67;100905.19;6238600;23;20348;-81
2022/09/16 03:59:12;;;;;;;7.57;1.27;;;;;;;13.42;86.76;100916.38;6212760;23;20012;-81
2022/09/16 04:01:38;;;;;;;4.15;1.00;;;;;;;13.52;85.63;100915.63;6239484;23;20481;-81
2022/09/16 04:04:03;;;;;;;5.47;1.00;;;;;;;13.52;85.29;100909.19;6212264;23;20008;-81
2022/09/16 04:06:28;;;;;;;3.47;0.90;;;;;;;13.58;85.43;100919.66;6211408;23;20102;-81
2022/09/16 04:08:56;;;;;;;2.70;1.23;;;;;;;13.60;85.71;100927.69;6240977;23;20027;-81
2022/09/16 04:11:21;;;;;;;3.80;1.30;;;;;;;13.56;85.58;100935.31;6239587;23;20016;-80
2022/09/16 04:13:46;;;;;;;1.50;0.90;;;;;;;13.17;88.28;100931.09;6238264;23;20008;-81
2022/09/16 04:16:18;;;;;;;5.63;1.15;;;;;;;13.36;87.84;100917.97;6210683;23;20016;-82
2022/09/16 04:18:44;;;;;;;3.92;0.90;;;;;;;13.23;87.82;100907.03;6212369;23;20008;-81
2022/09/16 04:21:09;;;;;;;4.93;1.13;;;;;;;13.45;86.61;100909.16;6210632;23;20085;-81
2022/09/16 04:23:34;;;;;;;2.63;0.85;;;;;;;13.51;85.36;100908.38;6239274;23;20020;-81
2022/09/16 04:26:01;;;;;;;2.53;0.93;;;;;;;13.35;86.49;100908.72;6240343;23;20004;-81
2022/09/16 04:28:29;;;;;;;3.05;0.90;;;;;;;13.41;85.43;100900.72;6212882;23;20012;-81
2022/09/16 04:31:02;;;;;;;6.15;1.65;;;;;;;13.50;84.70;100917.22;6239638;23;20445;-81
2022/09/16 04:33:29;;;;;;;2.05;1.20;;;;;;;13.56;84.68;100915.63;6235523;23;20347;-81
2022/09/16 04:36:21;;;;;;;2.20;0.88;;;;;;;13.59;84.25;100921.25;6238707;23;20008;-81
2022/09/16 04:38:48;;;;;;;2.28;0.80;;;;;;;13.55;84.56;100925.25;6236891;23;20487;-81
2022/09/16 04:41:19;;;;;;;5.07;0.98;;;;;;;13.28;86.57;100921.91;6213561;23;20019;-81
2022/09/16 04:43:44;;;;;;;4.32;1.40;;;;;;;13.31;85.76;100915.53;6238561;23;20016;-81
2022/09/16 04:46:10;;;;;;;3.85;1.10;;;;;;;13.19;85.35;100908.22;6238018;23;20606;-80
2022/09/16 04:48:36;;;;;;;3.00;1.23;;;;;;;13.45;83.94;100897.91;6240270;23;20074;-80
2022/09/16 04:51:05;;;;;;;7.63;1.27;;;;;;;13.39;84.55;100892.69;6240824;23;20012;-81
2022/09/16 04:53:30;;;;;;;5.30;1.33;;;;;;;13.36;86.10;100907.50;6183456;23;20305;-81
2022/09/16 04:56:07;;;;;;;3.95;1.05;;;;;;;13.25;84.87;100894.59;6208461;23;20390;-80
2022/09/16 04:58:33;;;;;;;6.80;1.00;;;;;;;13.45;84.52;100897.91;6181373;23;20111;-81
2022/09/16 05:01:12;;;;;;;3.60;0.90;;;;;;;13.41;84.98;100903.53;6210439;23;20023;-81
2022/09/16 05:03:42;;;;;;;2.30;0.88;;;;;;;13.47;84.02;100907.56;6206800;23;20341;-81
2022/09/16 05:06:13;;;;;;;5.65;1.00;;;;;;;13.42;84.71;100910.75;6208538;23;20084;-81
2022/09/16 05:08:39;;;;;;;5.13;1.02;;;;;;;13.41;84.84;100914.78;6182118;23;20040;-81
2022/09/16 05:11:10;;;;;;;3.03;1.38;;;;;;;13.44;83.74;100941.28;6209685;23;20498;-81
2022/09/16 05:13:36;;;;;;;5.47;1.40;;;;;;;12.86;87.05;100940.16;6179500;23;20070;-80
2022/09/16 05:16:04;;;;;;;9.18;2.15;;;;;;;12.40;89.25;100931.06;6208278;23;20030;-81
2022/09/16 05:18:29;;;;;;;5.82;1.50;;;;;;;12.84;87.83;100920.09;6181363;23;20075;-81
2022/09/16 05:20:57;;;;;;;3.50;0.93;;;;;;;12.97;86.39;100919.38;6183182;23;20337;-80
2022/09/16 05:23:23;;;;;;;8.90;1.70;;;;;;;12.73;87.80;100904.00;6180731;23;20122;-81
2022/09/16 05:25:48;;;;;;;4.32;1.25;;;;;;;13.14;85.84;100911.44;6208963;23;20055;-80
2022/09/16 05:28:13;;;;;;;7.75;1.38;;;;;;;13.18;84.90;100901.81;6210574;23;20043;-81
2022/09/16 05:30:38;;;;;;;7.32;1.75;;;;;;;13.24;84.64;100902.25;6208560;23;20040;-81
2022/09/16 05:33:04;;;;;;;3.25;0.82;;;;;;;13.28;84.48;100905.88;6181936;23;20032;-80
2022/09/16 05:35:29;;;;;;;3.83;1.00;;;;;;;13.28;84.72;100905.03;6206714;23;20429;-81
2022/09/16 05:37:54;;;;;;;4.10;1.00;;;;;;;13.26;84.40;100918.69;6207479;23;20004;-81
2022/09/16 05:40:21;;;;;;;4.15;1.00;;;;;;;13.28;84.63;100921.91;6203565;23;20505;-81
2022/09/16 05:42:48;;;;;;;5.18;1.25;;;;;;;13.26;84.79;100911.09;6207505;23;20005;-81
2022/09/16 05:45:14;;;;;;;2.58;0.70;;;;;;;13.16;85.55;100920.28;6208676;23;20017;-81
2022/09/16 05:47:39;;;;;;;6.60;1.13;;;;;;;13.22;84.81;100929.94;6204831;23;20551;-81
2022/09/16 05:50:05;;;;;;;3.22;1.10;;;;;;;13.10;85.13;100924.66;6181900;23;20020;-81
2022/09/16 05:52:30;;;;;;;5.03;1.00;;;;;;;13.00;85.65;100914.97;6181747;23;20024;-81
2022/09/16 05:54:55;;;;;;;8.02;1.67;;;;;;;13.11;85.34;100918.66;6180487;23;20019;-82
2022/09/16 05:57:21;;;;;;;3.72;1.10;;;;;;;12.97;85.52;100918.59;6208694;23;20079;-81
2022/09/16 05:59:46;;;;;;;3.95;0.90;;;;;;;13.06;85.01;100919.00;6176830;23;20151;-81
2022/09/16 06:02:12;;;;;;;4.30;1.30;;;;;;;13.01;85.32;100919.41;6179066;23;20123;-81
2022/09/16 06:04:37;;;;;;;4.00;0.88;;;;;;;12.81;86.33;100910.44;6205985;23;20024;-81
2022/09/16 06:07:02;;;;;;;3.97;0.90;;;;;;;13.35;86.37;100913.56;6205949;23;20184;-79
2022/09/16 06:09:28;;;;;;;6.20;1.33;;;;;;;13.61;86.90;100907.59;6177041;23;20016;-80
2022/09/16 06:11:54;;;;;;;5.07;1.02;;;;;;;13.60;83.33;100911.63;6176155;23;20020;-80
2022/09/16 06:14:21;;;;;;;5.88;1.58;;;;;;;13.32;84.01;100917.13;6197708;23;20012;-79
2022/09/16 06:16:47;;;;;;;8.85;1.77;;;;;;;12.75;86.50;100912.81;6206572;23;20528;-79
2022/09/16 06:19:15;;;;;;;5.72;1.67;;;;;;;12.91;86.71;100915.31;6208641;23;20032;-79
2022/09/16 06:21:42;;;;;;;7.55;1.83;;;;;;;12.55;88.66;100920.72;6203579;23;20368;-79
2022/09/16 06:24:09;;;;;;;5.05;1.20;;;;;;;12.72;87.86;100916.44;6176470;23;20020;-79
2022/09/16 06:26:37;;;;;;;4.32;1.13;;;;;;;12.93;86.63;100915.75;6207327;23;20552;-78
2022/09/16 06:29:03;;;;;;;8.63;2.05;;;;;;;12.97;86.25;100924.19;6203282;23;20075;-79
2022/09/16 06:31:28;;;;;;;5.70;1.20;;;;;;;13.07;85.75;100928.25;6205316;23;20008;-79
2022/09/16 06:33:54;;;;;;;5.28;1.58;;;;;;;13.03;86.22;100919.81;6177120;23;20605;-79
2022/09/16 06:36:22;;;;;;;4.82;1.27;;;;;;;12.93;88.34;100918.56;6205683;23;20099;-79
2022/09/16 06:38:49;;;;;;;4.80;2.08;;;;;;;12.97;87.06;100918.59;6202701;23;20012;-79
2022/09/16 06:41:15;;;;;;;3.20;1.10;;;;;;;13.15;85.80;100925.06;6201305;23;20439;-79
2022/09/16 06:43:42;;;;;;;4.57;1.40;;;;;;;13.14;86.72;100922.69;6174321;23;20095;-79
2022/09/16 06:46:17;;;;;;;4.78;1.85;;;;;;;13.21;85.96;100928.31;6200880;23;20042;-79
2022/09/16 06:48:44;;;;;;;4.65;1.60;;;;;;;13.31;85.62;100921.16;6207799;23;20043;-79
2022/09/16 06:51:11;;;;;;;4.53;1.38;;;;;;;13.13;86.20;100913.41;6207057;23;20022;-80
2022/09/16 06:53:38;;;;;;;5.55;1.42;;;;;;;12.94;87.74;100924.97;6208687;23;20024;-80
2022/09/16 06:56:06;;;;;;;7.45;1.48;;;;;;;13.04;87.99;100927.03;6209743;23;20004;-79
2022/09/16 06:58:33;;;;;;;6.80;1.40;;;;;;;12.90;89.01;100921.34;6209931;23;20355;-79
2022/09/16 07:01:03;;;;;;;8.63;1.25;;;;;;;12.78;89.70;100928.91;6210674;23;20459;-79
2022/09/16 07:03:29;;;;;;;8.00;1.50;;;;;;;13.08;86.09;100918.63;6237746;23;20051;-79
2022/09/16 07:06:00;;;;;;;6.60;1.58;;;;;;;13.28;84.70;100919.94;6237836;23;20012;-78
2022/09/16 07:08:28;;;;;;;5.47;1.42;;;;;;;13.30;85.91;100925.16;6236707;23;20005;-79
2022/09/16 07:11:14;;;;;;;8.68;2.47;;;;;;;13.30;86.26;100925.16;6237911;23;20016;-79
2022/09/16 07:13:40;;;;;;;6.40;1.38;;;;;;;13.34;84.26;100923.97;6208425;23;20014;-79
2022/09/16 07:16:08;;;;;;;4.35;1.60;;;;;;;13.26;85.24;100933.56;6210342;23;20012;-79
2022/09/16 07:21:30;;;;;;;7.63;1.65;;;;;;;13.20;85.84;100930.31;6228202;23;20126;-79
2022/09/16 07:23:58;;;;;;;5.20;1.27;;;;;;;13.24;86.30;100930.34;6237762;23;20012;-79
2022/09/16 07:26:26;;;;;;;5.47;1.50;;;;;;;13.15;87.41;100933.50;6207763;23;20027;-79
2022/09/16 07:28:53;;;;;;;6.13;1.10;;;;;;;12.67;90.44;100930.84;6212435;23;20437;-79
2022/09/16 07:31:23;;;;;;;4.70;1.30;;;;;;;12.91;88.72;100923.75;6208550;23;20034;-79
2022/09/16 07:33:49;;;;;;;3.17;1.23;;;;;;;12.78;90.28;100934.53;6212763;23;20012;-79
2022/09/16 07:36:26;;;;;;;5.13;1.10;;;;;;;12.83;90.19;100930.53;6237176;23;20019;-79
2022/09/16 07:38:53;;;;;;;5.50;1.00;;;;;;;13.18;86.91;100929.91;6207439;23;20003;-79
2022/09/16 07:41:21;;;;;;;5.20;1.10;;;;;;;13.18;89.29;100935.53;6235642;23;20439;-79
2022/09/16 07:43:47;;;;;;;5.15;1.40;;;;;;;13.42;85.84;100933.25;6213863;23;20034;-79
2022/09/16 07:46:15;;;;;;;9.70;1.48;;;;;;;13.01;84.50;100930.66;6240196;23;20336;-79
2022/09/16 07:48:41;;;;;;;7.57;1.63;;;;;;;13.16;87.36;100931.53;6213688;23;20000;-79
2022/09/16 07:51:13;;;;;;;6.95;1.50;;;;;;;13.19;88.28;100939.16;6212900;23;20439;-79
2022/09/16 07:53:39;;;;;;;4.18;1.27;;;;;;;13.12;87.54;100931.50;6211157;23;20019;-79
2022/09/16 07:56:08;;;;;;;4.35;1.10;;;;;;;13.23;88.80;100935.16;6211261;23;20070;-80
2022/09/16 07:58:34;;;;;;;5.10;1.50;;;;;;;13.18;87.12;100938.34;6214426;23;20386;-79
2022/09/16 08:01:00;;;;;;;9.40;1.58;;;;;;;13.35;85.18;100941.66;6212586;23;20472;-79
2022/09/16 08:03:25;;;;;;;3.75;1.20;;;;;;;13.48;88.02;100945.72;6240549;23;20344;-79
2022/09/16 08:05:51;;;;;;;16.38;2.58;;;;;;;13.33;87.80;100941.25;6236053;23;20008;-79
2022/09/16 08:08:17;;;;;;;7.65;2.08;;;;;;;13.37;86.52;100933.66;6241253;23;20016;-80
2022/09/16 08:10:42;;;;;;;4.95;1.38;;;;;;;13.44;85.08;100925.22;6238819;23;20428;-79
2022/09/16 08:13:08;;;;;;;5.95;1.38;;;;;;;13.25;85.99;100925.53;6212168;23;20336;-79
2022/09/16 08:15:34;;;;;;;8.95;1.30;;;;;;;13.47;84.35;100929.25;6240753;23;20012;-79
2022/09/16 08:18:02;;;;;;;6.13;1.60;;;;;;;13.49;83.85;100930.47;6212821;23;20008;-79
2022/09/16 08:20:28;;;;;;;5.30;1.17;;;;;;;13.51;84.24;100933.66;6213588;23;20024;-79
2022/09/16 08:22:53;;;;;;;6.90;1.90;;;;;;;13.39;85.63;100936.88;6236953;23;20006;-79
2022/09/16 08:25:18;;;;;;;7.15;1.23;;;;;;;13.48;88.73;100931.66;6236847;23;20007;-79
2022/09/16 08:27:44;;;;;;;11.43;2.08;;;;;;;13.39;86.82;100934.84;6238906;23;20388;-79
2022/09/16 08:30:10;;;;;;;8.90;2.55;;;;;;;13.44;85.43;100933.66;6237435;23;20008;-79
2022/09/16 08:32:35;;;;;;;8.70;1.88;;;;;;;13.57;85.54;100940.53;6213792;23;19999;-79
2022/09/16 08:35:01;;;;;;;7.35;1.30;;;;;;;13.68;87.71;100934.94;6238910;23;20023;-79
2022/09/16 08:37:26;;;;;;;5.82;1.08;;;;;;;13.74;84.69;100932.53;6237824;23;20000;-79
2022/09/16 08:39:51;;;;;;;7.28;1.08;;;;;;;13.71;84.86;100944.59;6211955;23;20098;-79
2022/09/16 08:42:29;;;;;;;6.72;1.33;;;;;;;13.80;85.25;100947.81;6210046;23;20445;-79
2022/09/16 08:45:14;;;;;;;9.13;1.67;;;;;;;13.91;83.04;100951.44;6238957;23;20018;-80
2022/09/16 08:48:01;;;;;;;7.55;1.30;;;;;;;13.89;84.81;100945.41;6213283;23;20012;-79
2022/09/16 08:50:32;;;;;;;5.25;1.33;;;;;;;13.97;83.00;100943.44;6210991;23;20008;-79
2022/09/16 08:53:02;;;;;;;4.70;1.27;;;;;;;14.02;83.67;100943.84;6240807;23;20020;-79
2022/09/16 08:55:38;;;;;;;11.43;2.10;;;;;;;14.06;83.41;100946.66;6210198;23;20241;-79
2022/09/16 08:58:16;;;;;;;7.40;2.15;;;;;;;14.00;83.87;100946.25;6237962;23;20324;-80
2022/09/16 09:00:45;;;;;;;6.75;1.33;;;;;;;13.92;83.40;100949.47;6239755;23;20087;-79
2022/09/16 09:03:29;;;;;;;11.98;1.85;;;;;;;14.00;83.43;100942.66;6211993;23;20350;-80
2022/09/16 09:05:57;;;;;;;9.32;1.15;;;;;;;13.94;83.16;100952.69;6210809;23;20500;-79
2022/09/16 09:08:49;;;;;;;2.05;0.98;;;;;;;14.10;82.10;100952.28;6237656;23;20008;-79
2022/09/16 09:11:27;;;;;;;6.68;1.40;;;;;;;14.12;83.04;100947.06;6212221;23;20012;-79
2022/09/16 09:14:17;;;;;;;7.60;1.33;;;;;;;14.17;83.13;100939.03;6212235;23;20016;-79
2022/09/16 09:16:58;;;;;;;7.45;1.38;;;;;;;14.30;82.80;100947.09;6239149;23;20324;-79
2022/09/16 09:19:52;;;;;;;3.95;1.05;;;;;;;14.28;82.15;100950.31;6212206;23;20047;-79
2022/09/16 09:22:27;;;;;;;8.90;1.75;;;;;;;14.22;82.71;100968.78;6180122;23;20215;-80
2022/09/16 09:25:30;;;;;;;6.90;1.42;;;;;;;14.25;81.05;100970.78;6211161;23;20391;-79
2022/09/16 09:28:22;;;;;;;7.05;1.27;;;;;;;14.27;78.56;100971.19;6239650;23;20087;-79
2022/09/16 09:31:07;;;;;;;11.95;1.85;;;;;;;14.34;78.84;100959.97;6238899;23;20008;-79
2022/09/16 09:33:39;;;;;;;8.50;1.98;;;;;;;14.28;76.15;100952.31;6228459;23;20020;-79
2022/09/16 09:36:28;;;;;;;14.15;2.03;;;;;;;14.26;77.10;100952.72;6237638;23;20419;-79
2022/09/16 09:39:03;;;;;;;11.15;2.20;;;;;;;14.21;77.50;100950.31;6212033;23;20036;-79
2022/09/16 09:41:41;;;;;;;6.05;1.58;;;;;;;14.20;74.82;100954.31;6240029;23;20313;-79
2022/09/16 09:44:39;;;;;;;14.63;3.30;;;;;;;14.18;76.98;100945.47;6239543;23;20369;-80
2022/09/16 09:47:13;;;;;;;5.22;1.70;;;;;;;14.12;76.15;100953.50;6239434;23;20447;-79
2022/09/16 09:49:45;;;;;;;6.30;1.70;;;;;;;14.09;75.87;100959.16;6238223;23;20027;-79
2022/09/16 09:52:30;;;;;;;6.05;1.52;;;;;;;13.97;76.93;100963.94;6240281;23;20321;-79
2022/09/16 09:55:05;;;;;;;3.83;1.25;;;;;;;13.92;78.53;100967.16;6241505;23;20012;-79
2022/09/16 09:57:45;;;;;;;5.93;1.98;;;;;;;14.16;79.03;100971.19;6212437;23;20008;-79
2022/09/16 10:00:16;;;;;;;4.70;1.50;;;;;;;14.16;79.31;100978.84;6211941;23;20042;-79
2022/09/16 10:02:44;;;;;;;8.35;1.40;;;;;;;14.14;78.22;100972.81;6239322;23;20015;-79
2022/09/16 10:05:24;;;;;;;9.50;1.80;;;;;;;14.25;78.81;100970.78;6238466;23;20419;-79
2022/09/16 10:07:57;;;;;;;9.48;1.58;;;;;;;14.24;78.25;100966.38;6236076;23;20018;-79
2022/09/16 10:10:25;;;;;;;7.05;1.13;;;;;;;14.24;77.61;100966.38;6238947;23;20081;-79
2022/09/16 10:12:51;;;;;;;8.05;1.88;;;;;;;14.32;77.35;100968.00;6212400;23;20019;-79
2022/09/16 10:15:28;;;;;;;9.40;1.73;;;;;;;14.36;78.46;100968.81;6213458;23;20008;-79
2022/09/16 10:17:54;;;;;;;6.63;1.15;;;;;;;14.13;76.61;100972.00;6235337;23;20392;-79
2022/09/16 10:20:42;;;;;;;6.43;1.42;;;;;;;13.94;78.54;100970.38;6239217;23;20008;-79
2022/09/16 10:23:13;;;;;;;5.85;1.02;;;;;;;14.11;79.13;100988.50;6239073;23;20004;-79
2022/09/16 10:25:39;;;;;;;7.30;1.63;;;;;;;14.04;78.79;100963.16;6237330;23;20023;-79
2022/09/16 10:28:21;;;;;;;9.65;1.67;;;;;;;14.07;78.36;100967.19;6237381;23;20004;-79
2022/09/16 10:30:55;;;;;;;3.90;1.20;;;;;;;14.02;78.27;100971.19;6237476;23;20063;-79
2022/09/16 10:33:26;;;;;;;5.60;1.50;;;;;;;13.97;78.50;100966.75;6211270;23;20012;-79
2022/09/16 10:36:21;;;;;;;4.43;0.90;;;;;;;14.29;77.88;100968.00;6237876;23;20035;-79
2022/09/16 10:38:56;;;;;;;5.68;1.33;;;;;;;14.40;77.53;100958.34;6209196;23;20356;-79
2022/09/16 10:41:24;;;;;;;4.57;1.50;;;;;;;14.49;77.72;100957.94;6239285;23;20075;-79
2022/09/16 10:43:51;;;;;;;4.28;1.15;;;;;;;14.54;77.66;100959.53;6238572;23;20082;-79
2022/09/16 10:46:18;;;;;;;5.90;2.10;;;;;;;14.39;76.78;100953.91;6235213;23;20016;-79
2022/09/16 10:48:45;;;;;;;5.28;1.10;;;;;;;14.41;77.67;100954.31;6211457;23;20027;-79
2022/09/16 10:51:25;;;;;;;5.55;1.85;;;;;;;14.72;76.56;100946.28;6233784;22;20008;-79
2022/09/16 10:54:04;;;;;;;6.60;1.20;;;;;;;14.96;75.82;100935.34;6206623;23;20004;-79
2022/09/16 10:56:32;;;;;;;9.77;2.30;;;;;;;15.20;70.72;100947.75;6236041;23;20435;-80
2022/09/16 10:59:09;;;;;;;15.77;1.85;;;;;;;15.34;69.33;100932.81;6236404;23;20098;-80
2022/09/16 11:01:34;;;;;;;5.78;2.10;;;;;;;15.08;67.65;100937.75;6209735;23;20436;-79
2022/09/16 11:04:44;;;;;;;12.18;2.58;;;;;;;14.91;67.00;100947.06;6235556;23;20083;-80
2022/09/16 11:07:28;;;;;;;11.10;1.80;;;;;;;14.81;72.34;100943.84;6208274;23;20432;-79
2022/09/16 11:10:12;;;;;;;16.02;3.33;;;;;;;14.71;72.56;100939.03;6211197;23;20018;-79
2022/09/16 11:13:16;;;;;;;13.00;2.97;;;;;;;14.57;68.36;100939.88;6212434;23;20004;-79
2022/09/16 11:15:48;;;;;;;15.25;2.28;;;;;;;14.94;71.03;100940.59;6210297;23;20015;-79
2022/09/16 11:18:43;;;;;;;21.40;3.13;;;;;;;15.07;68.78;100941.75;6210569;23;20069;-80
2022/09/16 11:21:27;;;;;;;8.77;1.70;;;;;;;14.84;68.24;100948.69;6242596;23;20110;-79
2022/09/16 11:24:16;;;;;;;10.27;2.47;;;;;;;14.74;64.53;100937.44;6215296;23;20004;-79
2022/09/16 11:27:06;;;;;;;8.63;2.40;;;;;;;15.28;65.90;100940.09;6217147;23;20050;-79
2022/09/16 11:29:43;;;;;;;12.68;2.33;;;;;;;15.18;66.17;100944.56;6240836;23;20000;-79
2022/09/16 11:32:34;;;;;;;10.23;1.73;;;;;;;15.25;62.96;100933.25;6214528;23;20020;-79
2022/09/16 11:35:21;;;;;;;10.05;2.00;;;;;;;15.26;66.06;100951.75;6214958;23;20000;-79
2022/09/16 11:37:53;;;;;;;8.98;1.70;;;;;;;15.82;64.84;100937.81;6241509;23;20019;-79
2022/09/16 11:40:37;;;;;;;5.35;1.38;;;;;;;15.99;61.97;100947.41;6242487;23;20012;-79
2022/09/16 11:43:35;;;;;;;13.45;1.80;;;;;;;15.79;65.27;100944.28;6218427;23;20430;-79
2022/09/16 11:46:11;;;;;;;9.48;2.03;;;;;;;15.92;63.53;100948.25;6244145;23;20022;-79
2022/09/16 11:49:32;;;;;;;8.23;1.75;;;;;;;16.11;61.10;100949.75;6213781;23;20428;-78
2022/09/16 11:52:42;;;;;;;6.57;1.42;;;;;;;16.40;58.94;100952.31;6137109;23;20025;-79